Cordeiro, Brazil
Current Conditions -  °F | °C
As of 5:00 PM on Monday 20 Oct 2014 (Local Time) from SBNT Reporting Station
Scattered Clouds Scattered Clouds  
Wind Chill: 79°   Ceiling: Unl
Heat Index: 81°   Visibility: 6mi
Dew Point: 68°   Wind: 15mph
Humidity: 69%   Direction: 120°ESE
Pressure: 29.88"   Gusts: NA
Location:  5.58°S, 35.27°W
Report Text: SBNT 202000Z 12013KT 9999 SCT023 26/20 Q1012
Loading
Personal Weather Stations






























Interactive Weather Map
Tropical Storm Tracking
New forecast layout! Learn more

10-Day Weather Forecast

Advertisements
Track Severe Weather on mobile